< Typhoon 195515 1955 Season Typhoon 195517 >
Typhoon 195516 (NO-NAME)
General InformationTrack Information on Google Maps || Disaster Info.ResourceGoogle EarthGE AnimationAtom FeedGeoJSON
Detalied Best Track (Time Zone = UTC)
Year Month Day Hour Lat. Long. Pressure (hPa) Wind (kt) Class Image Chart
1955 8 7 00 18.0 118.0 1002 0 2 -- Chart
1955 8 7 06 18.5 118.1 1002 0 2 -- Chart
1955 8 7 12 18.9 118.5 1002 0 2 -- Chart
1955 8 7 18 19.3 119.0 1002 0 2 -- Chart
1955 8 8 00 19.9 119.8 1002 0 2 -- Chart
1955 8 8 06 20.6 120.6 1004 0 2 -- Chart
1955 8 8 12 21.8 122.0 1004 0 2 -- Chart
1955 8 8 18 23.0 123.8 1004 0 2 -- Chart
1955 8 9 00 24.5 125.9 1006 0 2 -- Chart
1955 8 9 06 25.2 127.4 1006 0 2 -- Chart
1955 8 9 12 25.7 128.5 1006 0 2 -- Chart
1955 8 9 18 26.1 129.4 1004 0 2 -- Chart
1955 8 10 00 26.5 130.1 1002 0 2 -- Chart
1955 8 10 06 26.9 130.9 998 0 9 -- Chart
1955 8 10 12 27.4 131.3 998 0 9 -- Chart
1955 8 10 18 27.9 131.7 1000 0 9 -- Chart
1955 8 11 00 28.4 131.9 1000 0 9 -- Chart
1955 8 11 06 28.8 131.8 1000 0 9 -- Chart
1955 8 11 12 29.0 131.5 1000 0 9 -- Chart
1955 8 11 18 29.0 131.0 1000 0 9 -- Chart
1955 8 12 00 29.0 130.5 1000 0 9 -- Chart
1955 8 12 06 29.0 130.5 1000 0 9 -- Chart
1955 8 12 12 29.5 131.0 1000 0 9 -- Chart
1955 8 12 18 30.0 132.0 1000 0 9 -- Chart
1955 8 13 00 30.0 133.0 995 0 9 -- Chart
1955 8 13 06 29.9 134.0 990 0 9 -- Chart
1955 8 13 12 29.7 135.3 985 0 9 -- Chart
1955 8 13 18 29.7 136.7 985 0 9 -- Chart
1955 8 14 00 29.8 138.2 990 0 9 -- Chart
1955 8 14 06 30.0 139.7 990 0 9 -- Chart
1955 8 14 12 30.1 141.0 990 0 9 -- Chart
1955 8 14 18 30.3 142.2 994 0 9 -- Chart
1955 8 15 00 31.2 144.2 994 0 9 -- Chart
1955 8 15 06 32.1 146.3 994 0 9 -- Chart
1955 8 15 12 33.8 149.0 994 0 9 -- Chart
1955 8 15 18 35.2 151.0 994 0 9 -- Chart
1955 8 16 00 37.7 153.3 996 0 9 -- Chart
1955 8 16 06 39.5 154.9 994 0 9 -- Chart
1955 8 16 12 42.2 156.0 992 0 9 -- Chart
1955 8 16 18 45.3 155.7 1000 0 2 -- Chart
Japan Meteorological Agency Best Track Data | Correction Date : 1989-06-01
< Typhoon 195515 1955 Season Typhoon 195517 >

Help